Time;durP1;ratioP1;P1;durP2;ratioP2;P2;SDS_P1;SDS_P2;PMS_P1;PMS_P2;Temp;Humidity;BMP_temperature;BMP_pressure;BME280_temperature;BME280_humidity;BME280_pressure;Samples;Min_cycle;Max_cycle;Signal;HPM_P1;HPM_P2
2022/06/09 00:01:17;;;;;;;0.00;0.00;;;;;;;;;;5077866;27;87261;-72
2022/06/09 00:03:54;;;;;;;0.00;0.00;;;;;;;;;;5080703;27;87523;-71
2022/06/09 00:06:21;;;;;;;0.00;0.00;;;;;;;;;;5077879;27;87696;-71
2022/06/09 00:08:48;;;;;;;0.00;0.00;;;;;;;;;;5074644;27;88895;-71
2022/06/09 00:11:17;;;;;;;0.00;0.00;;;;;;;;;;5063901;27;87356;-72
2022/06/09 00:13:44;;;;;;;0.00;0.00;;;;;;;;;;5046102;27;87777;-71
2022/06/09 00:16:11;;;;;;;0.00;0.00;;;;;;;;;;5064006;27;87130;-71
2022/06/09 00:18:37;;;;;;;0.00;0.00;;;;;;;;;;5063810;27;86722;-72
2022/06/09 00:21:04;;;;;;;0.00;0.00;;;;;;;;;;5045909;27;88091;-72
2022/06/09 00:23:30;;;;;;;0.00;0.00;;;;;;;;;;5063579;27;88271;-71
2022/06/09 00:25:57;;;;;;;0.00;0.00;;;;;;;;;;5066616;27;86895;-72
2022/06/09 00:28:23;;;;;;;0.00;0.00;;;;;;;;;;5063783;27;88190;-72
2022/06/09 00:30:50;;;;;;;0.00;0.00;;;;;;;;;;5063775;27;87063;-72
2022/06/09 00:33:16;;;;;;;0.00;0.00;;;;;;;;;;5063834;27;86954;-72
2022/06/09 00:35:43;;;;;;;0.00;0.00;;;;;;;;;;5063117;27;88294;-72
2022/06/09 00:38:09;;;;;;;0.00;0.00;;;;;;;;;;5063341;27;87333;-72
2022/06/09 00:40:35;;;;;;;1.65;0.88;;;;;;;;;;5063589;27;88351;-72
2022/06/09 00:43:03;;;;;;;0.00;0.00;;;;;;;;;;5063450;27;88255;-72
2022/06/09 00:45:33;;;;;;;0.00;0.00;;;;;;;;;;5063444;27;87396;-71
2022/06/09 00:48:06;;;;;;;0.00;0.00;;;;;;;;;;5066288;27;88017;-71
2022/06/09 00:50:33;;;;;;;0.00;0.00;;;;;;;;;;5063018;27;87518;-72
2022/06/09 00:53:02;;;;;;;0.00;0.00;;;;;;;;;;5063251;27;87624;-72
2022/06/09 00:55:31;;;;;;;0.00;0.00;;;;;;;;;;5063288;27;88160;-72
2022/06/09 00:58:09;;;;;;;0.10;0.10;;;;;;;;;;5062947;27;87563;-72
2022/06/09 01:00:47;;;;;;;0.00;0.00;;;;;;;;;;5063345;27;87714;-72
2022/06/09 01:03:17;;;;;;;0.00;0.00;;;;;;;;;;5044803;27;90194;-71
2022/06/09 01:05:44;;;;;;;0.00;0.00;;;;;;;;;;5063486;27;87677;-71
2022/06/09 01:08:12;;;;;;;0.00;0.00;;;;;;;;;;5060400;27;87906;-72
2022/06/09 01:10:38;;;;;;;0.00;0.00;;;;;;;;;;5065732;27;86859;-72
2022/06/09 01:13:05;;;;;;;0.00;0.00;;;;;;;;;;5063201;27;87661;-72
2022/06/09 01:15:43;;;;;;;0.00;0.00;;;;;;;;;;5062613;27;88166;-71
2022/06/09 01:18:26;;;;;;;0.00;0.00;;;;;;;;;;5062956;27;87371;-71
2022/06/09 01:21:00;;;;;;;0.00;0.00;;;;;;;;;;5061872;27;87119;-72
2022/06/09 01:23:29;;;;;;;0.00;0.00;;;;;;;;;;5063039;27;88360;-71
2022/06/09 01:25:56;;;;;;;0.00;0.00;;;;;;;;;;5062244;27;87926;-72
2022/06/09 01:28:46;;;;;;;0.00;0.00;;;;;;;;;;5062718;27;88355;-72
2022/06/09 01:31:20;;;;;;;0.00;0.00;;;;;;;;;;5065685;27;88099;-72
2022/06/09 01:34:02;;;;;;;0.00;0.00;;;;;;;;;;5062724;27;87426;-71
2022/06/09 01:36:36;;;;;;;0.00;0.00;;;;;;;;;;5062537;27;88263;-72
2022/06/09 01:39:05;;;;;;;0.00;0.00;;;;;;;;;;5062451;27;87435;-72
2022/06/09 01:41:31;;;;;;;0.00;0.00;;;;;;;;;;5062793;27;87631;-72
2022/06/09 01:44:00;;;;;;;0.00;0.00;;;;;;;;;;5062703;27;87258;-72
2022/06/09 01:46:30;;;;;;;0.00;0.00;;;;;;;;;;5062473;27;87330;-72
2022/06/09 01:49:00;;;;;;;0.00;0.00;;;;;;;;;;5062185;27;87655;-72
2022/06/09 01:51:28;;;;;;;0.00;0.00;;;;;;;;;;5062354;27;88401;-72
2022/06/09 01:53:57;;;;;;;0.00;0.00;;;;;;;;;;5065249;27;87689;-72
2022/06/09 01:56:27;;;;;;;0.00;0.00;;;;;;;;;;5062408;27;88241;-72
2022/06/09 01:58:57;;;;;;;0.00;0.00;;;;;;;;;;5062101;27;87400;-72
2022/06/09 02:01:29;;;;;;;0.00;0.00;;;;;;;;;;5061822;27;87403;-72
2022/06/09 02:03:59;;;;;;;0.00;0.00;;;;;;;;;;5062380;27;87852;-71
2022/06/09 02:06:26;;;;;;;0.00;0.00;;;;;;;;;;5062216;27;88094;-72
2022/06/09 02:08:53;;;;;;;0.00;0.00;;;;;;;;;;5062321;27;87749;-71
2022/06/09 02:11:20;;;;;;;0.00;0.00;;;;;;;;;;5062155;27;87202;-72
2022/06/09 02:13:49;;;;;;;0.00;0.00;;;;;;;;;;5061635;27;87432;-71
2022/06/09 02:16:17;;;;;;;0.00;0.00;;;;;;;;;;5065084;27;87838;-71
2022/06/09 02:18:46;;;;;;;0.00;0.00;;;;;;;;;;5061991;27;86781;-72
2022/06/09 02:21:15;;;;;;;0.00;0.00;;;;;;;;;;5062071;27;87669;-71
2022/06/09 02:23:41;;;;;;;0.00;0.00;;;;;;;;;;5062003;27;88194;-72
2022/06/09 02:26:08;;;;;;;0.00;0.00;;;;;;;;;;5061854;27;87668;-72
2022/06/09 02:28:35;;;;;;;0.00;0.00;;;;;;;;;;5043445;27;88095;-72
2022/06/09 02:31:02;;;;;;;0.00;0.00;;;;;;;;;;5061852;27;88257;-72
2022/06/09 02:33:29;;;;;;;0.00;0.00;;;;;;;;;;5061162;27;87625;-72
2022/06/09 02:35:55;;;;;;;0.00;0.00;;;;;;;;;;5062013;27;87801;-72
2022/06/09 02:38:22;;;;;;;0.00;0.00;;;;;;;;;;5064459;27;88048;-71
2022/06/09 02:40:49;;;;;;;0.00;0.00;;;;;;;;;;5061689;27;87730;-72
2022/06/09 02:43:15;;;;;;;0.00;0.00;;;;;;;;;;5061708;27;87557;-72
2022/06/09 02:45:42;;;;;;;0.00;0.00;;;;;;;;;;5061865;27;86670;-72
2022/06/09 02:48:08;;;;;;;0.00;0.00;;;;;;;;;;5061658;27;86841;-72
2022/06/09 02:50:35;;;;;;;0.00;0.00;;;;;;;;;;5061457;27;88270;-72
2022/06/09 02:53:02;;;;;;;0.13;0.13;;;;;;;;;;5061420;27;87505;-72
2022/06/09 02:55:29;;;;;;;0.30;0.30;;;;;;;;;;5061379;27;87199;-72
2022/06/09 02:57:56;;;;;;;0.00;0.00;;;;;;;;;;5043414;27;88339;-72
2022/06/09 03:00:22;;;;;;;0.00;0.00;;;;;;;;;;5064486;27;87721;-71
2022/06/09 03:02:53;;;;;;;0.00;0.00;;;;;;;;;;5061314;27;88121;-71
2022/06/09 03:05:20;;;;;;;0.00;0.00;;;;;;;;;;5061462;27;87481;-71
2022/06/09 03:07:46;;;;;;;0.22;0.20;;;;;;;;;;5060490;27;89050;-72
2022/06/09 03:10:12;;;;;;;0.00;0.00;;;;;;;;;;5042762;27;88441;-72
2022/06/09 03:12:39;;;;;;;0.00;0.00;;;;;;;;;;5060517;27;87810;-72
2022/06/09 03:15:08;;;;;;;0.00;0.00;;;;;;;;;;5061049;27;89246;-72
2022/06/09 03:17:34;;;;;;;0.00;0.00;;;;;;;;;;5060750;27;88410;-72
2022/06/09 03:20:02;;;;;;;0.00;0.00;;;;;;;;;;5062847;27;90138;-72
2022/06/09 03:22:30;;;;;;;0.00;0.00;;;;;;;;;;5059981;27;88050;-71
2022/06/09 03:24:56;;;;;;;0.00;0.00;;;;;;;;;;5059507;27;89027;-72
2022/06/09 03:27:22;;;;;;;0.00;0.00;;;;;;;;;;5059678;27;89210;-71
2022/06/09 03:29:49;;;;;;;0.00;0.00;;;;;;;;;;5059806;27;88305;-72
2022/06/09 03:32:15;;;;;;;0.00;0.00;;;;;;;;;;5059862;27;87995;-71
2022/06/09 03:34:41;;;;;;;0.00;0.00;;;;;;;;;;5060462;27;88102;-72
2022/06/09 03:37:08;;;;;;;0.03;0.03;;;;;;;;;;5059931;27;87842;-72
2022/06/09 03:39:35;;;;;;;0.00;0.00;;;;;;;;;;5059142;27;89286;-72
2022/06/09 03:42:01;;;;;;;0.00;0.00;;;;;;;;;;5060975;27;90108;-72
2022/06/09 03:44:28;;;;;;;0.00;0.00;;;;;;;;;;5060793;27;88013;-71
2022/06/09 03:46:54;;;;;;;0.00;0.00;;;;;;;;;;5063380;27;89055;-71
2022/06/09 03:49:21;;;;;;;0.00;0.00;;;;;;;;;;5063435;27;88046;-71
2022/06/09 03:51:47;;;;;;;0.20;0.20;;;;;;;;;;5062749;27;88463;-72
2022/06/09 03:54:14;;;;;;;0.10;0.10;;;;;;;;;;5063092;27;88733;-72
2022/06/09 03:56:41;;;;;;;0.00;0.00;;;;;;;;;;5060340;27;87824;-72
2022/06/09 03:59:08;;;;;;;0.00;0.00;;;;;;;;;;5063299;27;88422;-72
2022/06/09 04:01:35;;;;;;;0.00;0.00;;;;;;;;;;5045353;27;89103;-72
2022/06/09 04:04:01;;;;;;;0.00;0.00;;;;;;;;;;5066325;27;88122;-72
2022/06/09 04:06:28;;;;;;;0.00;0.00;;;;;;;;;;5061867;27;90878;-72
2022/06/09 04:08:54;;;;;;;0.00;0.00;;;;;;;;;;5063107;27;88206;-72
2022/06/09 04:11:21;;;;;;;0.15;0.15;;;;;;;;;;5062902;27;89072;-72
2022/06/09 04:13:48;;;;;;;0.00;0.00;;;;;;;;;;5062995;27;88781;-72
2022/06/09 04:16:47;;;;;;;0.00;0.00;;;;;;;;;;5062911;27;87745;-72
2022/06/09 04:19:15;;;;;;;0.00;0.00;;;;;;;;;;5007473;27;88958;-72
2022/06/09 04:21:42;;;;;;;0.00;0.00;;;;;;;;;;5062817;27;89145;-72
2022/06/09 04:24:09;;;;;;;0.10;0.10;;;;;;;;;;5063156;27;88647;-72
2022/06/09 04:26:37;;;;;;;0.00;0.00;;;;;;;;;;5065538;27;88312;-72
2022/06/09 04:29:05;;;;;;;0.00;0.00;;;;;;;;;;5062840;27;88334;-72
2022/06/09 04:31:32;;;;;;;0.00;0.00;;;;;;;;;;5061766;27;88536;-73
2022/06/09 04:33:59;;;;;;;0.00;0.00;;;;;;;;;;5062593;27;89083;-72
2022/06/09 04:36:25;;;;;;;0.00;0.00;;;;;;;;;;5062698;27;88100;-72
2022/06/09 04:38:59;;;;;;;0.00;0.00;;;;;;;;;;5062526;27;89534;-72
2022/06/09 04:41:28;;;;;;;0.10;0.10;;;;;;;;;;5062695;27;88816;-72
2022/06/09 04:43:57;;;;;;;0.00;0.00;;;;;;;;;;5062068;27;88171;-72
2022/06/09 04:46:24;;;;;;;0.00;0.00;;;;;;;;;;5062568;27;88958;-72
2022/06/09 04:48:51;;;;;;;0.20;0.20;;;;;;;;;;5066116;27;87896;-72
2022/06/09 04:51:18;;;;;;;0.00;0.00;;;;;;;;;;5062522;27;88687;-73
2022/06/09 04:53:47;;;;;;;0.00;0.00;;;;;;;;;;5062409;27;89082;-72
2022/06/09 04:56:15;;;;;;;0.00;0.00;;;;;;;;;;5061916;27;88510;-72
2022/06/09 04:58:41;;;;;;;0.00;0.00;;;;;;;;;;5061901;27;87963;-73
2022/06/09 05:01:14;;;;;;;0.00;0.00;;;;;;;;;;5044324;27;89375;-73
2022/06/09 05:03:42;;;;;;;0.00;0.00;;;;;;;;;;5062132;27;87847;-73
2022/06/09 05:06:11;;;;;;;0.00;0.00;;;;;;;;;;5044827;27;88482;-73
2022/06/09 05:08:38;;;;;;;0.03;0.03;;;;;;;;;;5043921;27;90246;-73
2022/06/09 05:11:05;;;;;;;0.00;0.00;;;;;;;;;;5064631;27;87864;-72
2022/06/09 05:13:32;;;;;;;0.00;0.00;;;;;;;;;;5062613;27;88352;-73
2022/06/09 05:15:58;;;;;;;0.10;0.10;;;;;;;;;;5062273;27;87862;-72
2022/06/09 05:18:26;;;;;;;1.15;0.30;;;;;;;;;;5061750;27;88877;-73
2022/06/09 05:20:52;;;;;;;0.00;0.00;;;;;;;;;;5061229;27;89920;-73
2022/06/09 05:23:19;;;;;;;0.00;0.00;;;;;;;;;;5062347;27;87757;-72
2022/06/09 05:25:46;;;;;;;0.00;0.00;;;;;;;;;;5061475;27;89005;-72
2022/06/09 05:28:12;;;;;;;0.10;0.10;;;;;;;;;;5044100;27;89075;-72
2022/06/09 05:30:39;;;;;;;0.08;0.08;;;;;;;;;;5064483;27;88476;-73
2022/06/09 05:33:05;;;;;;;1.73;0.63;;;;;;;;;;5061592;27;89315;-72
2022/06/09 05:35:32;;;;;;;0.00;0.00;;;;;;;;;;5061802;27;88054;-72
2022/06/09 05:46:16;;;;;;;0.00;0.00;;;;;;;;;;5061077;27;89003;-72
2022/06/09 05:48:42;;;;;;;0.00;0.00;;;;;;;;;;5061005;27;89081;-72
2022/06/09 05:51:09;;;;;;;0.10;0.10;;;;;;;;;;5061532;27;88266;-73
2022/06/09 05:53:37;;;;;;;0.00;0.00;;;;;;;;;;5064527;27;88028;-73
2022/06/09 05:56:04;;;;;;;0.10;0.10;;;;;;;;;;5061463;27;88254;-73
2022/06/09 05:58:30;;;;;;;0.10;0.10;;;;;;;;;;5060995;27;89034;-73
2022/06/09 06:00:57;;;;;;;0.10;0.10;;;;;;;;;;5061361;27;89528;-73
2022/06/09 06:03:23;;;;;;;0.10;0.10;;;;;;;;;;5061583;27;88028;-73
2022/06/09 06:08:35;;;;;;;0.00;0.00;;;;;;;;;;5060703;27;89243;-74
2022/06/09 06:11:01;;;;;;;0.10;0.10;;;;;;;;;;5060387;27;88658;-73
2022/06/09 06:13:29;;;;;;;0.00;0.00;;;;;;;;;;5061131;27;89705;-73
2022/06/09 06:15:55;;;;;;;0.00;0.00;;;;;;;;;;5063891;27;88878;-72
2022/06/09 06:18:30;;;;;;;0.13;0.13;;;;;;;;;;5061194;27;88252;-73
2022/06/09 06:20:56;;;;;;;0.10;0.10;;;;;;;;;;5061437;27;88554;-72
2022/06/09 06:23:23;;;;;;;0.10;0.10;;;;;;;;;;5061009;27;87764;-72
2022/06/09 06:25:51;;;;;;;0.25;0.25;;;;;;;;;;5061080;27;88558;-73
2022/06/09 06:28:17;;;;;;;0.10;0.10;;;;;;;;;;5061230;27;88439;-74
2022/06/09 06:30:43;;;;;;;0.00;0.00;;;;;;;;;;5060872;27;88443;-75
2022/06/09 06:33:10;;;;;;;0.10;0.10;;;;;;;;;;5060716;27;89468;-76
2022/06/09 06:35:36;;;;;;;0.10;0.10;;;;;;;;;;5060394;27;89885;-76
2022/06/09 06:38:03;;;;;;;0.10;0.10;;;;;;;;;;5063802;27;87889;-76
2022/06/09 06:40:30;;;;;;;0.10;0.10;;;;;;;;;;5042846;27;89449;-76
2022/06/09 06:42:56;;;;;;;0.10;0.10;;;;;;;;;;5060121;27;88109;-77
2022/06/09 06:45:23;;;;;;;0.00;0.00;;;;;;;;;;5060951;27;87856;-75
2022/06/09 06:47:50;;;;;;;0.30;0.30;;;;;;;;;;5060636;27;89116;-75
2022/06/09 06:50:22;;;;;;;0.10;0.10;;;;;;;;;;5043368;27;88000;-74
2022/06/09 06:52:49;;;;;;;0.00;0.00;;;;;;;;;;5061151;27;89280;-75
2022/06/09 06:55:16;;;;;;;0.10;0.10;;;;;;;;;;5060329;27;88743;-75
2022/06/09 06:57:42;;;;;;;0.10;0.10;;;;;;;;;;5059891;27;88738;-76
2022/06/09 07:00:10;;;;;;;0.10;0.10;;;;;;;;;;5062630;27;88881;-77
2022/06/09 07:02:36;;;;;;;0.10;0.10;;;;;;;;;;5060479;27;87924;-78
2022/06/09 07:05:23;;;;;;;0.10;0.10;;;;;;;;;;5056468;27;88010;-77
2022/06/09 07:07:50;;;;;;;0.28;0.28;;;;;;;;;;5060312;27;88638;-76
2022/06/09 07:10:18;;;;;;;0.65;0.28;;;;;;;;;;5060232;27;88636;-76
2022/06/09 07:12:51;;;;;;;0.30;0.30;;;;;;;;;;5060009;27;89027;-77
2022/06/09 07:15:17;;;;;;;0.10;0.10;;;;;;;;;;5060360;27;89153;-76
2022/06/09 07:17:44;;;;;;;0.10;0.10;;;;;;;;;;5060778;27;88042;-76
2022/06/09 07:20:11;;;;;;;0.00;0.00;;;;;;;;;;5061995;27;88693;-78
2022/06/09 07:22:38;;;;;;;0.00;0.00;;;;;;;;;;5066580;27;89167;-76
2022/06/09 07:25:04;;;;;;;0.10;0.10;;;;;;;;;;5063703;27;88509;-75
2022/06/09 07:27:31;;;;;;;0.10;0.10;;;;;;;;;;5063779;27;89267;-75
2022/06/09 07:29:57;;;;;;;0.00;0.00;;;;;;;;;;5065638;27;88095;-77
2022/06/09 07:32:24;;;;;;;0.10;0.10;;;;;;;;;;5064791;27;89126;-75
2022/06/09 07:34:50;;;;;;;0.00;0.00;;;;;;;;;;5045279;27;91053;-76
2022/06/09 07:37:17;;;;;;;0.00;0.00;;;;;;;;;;5045055;27;91544;-74
2022/06/09 07:39:43;;;;;;;0.00;0.00;;;;;;;;;;5063119;27;87864;-77
2022/06/09 07:42:10;;;;;;;0.10;0.10;;;;;;;;;;5066888;27;88582;-77
2022/06/09 07:44:36;;;;;;;0.10;0.10;;;;;;;;;;5063499;27;88706;-78
2022/06/09 07:47:03;;;;;;;0.00;0.00;;;;;;;;;;5063324;27;89193;-76
2022/06/09 07:49:29;;;;;;;0.43;0.17;;;;;;;;;;5062380;27;88636;-77
2022/06/09 07:51:56;;;;;;;0.00;0.00;;;;;;;;;;5063066;27;89247;-72
2022/06/09 07:54:22;;;;;;;0.10;0.10;;;;;;;;;;5063218;27;89239;-73
2022/06/09 07:56:48;;;;;;;0.03;0.03;;;;;;;;;;5063178;27;87946;-73
2022/06/09 07:59:15;;;;;;;0.08;0.08;;;;;;;;;;5063016;27;88059;-73
2022/06/09 08:01:41;;;;;;;0.17;0.17;;;;;;;;;;5062826;27;88518;-74
2022/06/09 08:04:08;;;;;;;0.20;0.20;;;;;;;;;;5065656;27;88304;-74
2022/06/09 08:06:34;;;;;;;0.10;0.10;;;;;;;;;;5063192;27;88412;-73
2022/06/09 08:09:01;;;;;;;0.00;0.00;;;;;;;;;;5062640;27;88209;-74
2022/06/09 08:11:29;;;;;;;0.10;0.10;;;;;;;;;;5062849;27;88984;-73
2022/06/09 08:13:58;;;;;;;0.10;0.10;;;;;;;;;;5061983;27;89946;-74
2022/06/09 08:16:25;;;;;;;0.00;0.00;;;;;;;;;;5062685;27;87768;-73
2022/06/09 08:18:52;;;;;;;0.10;0.10;;;;;;;;;;5062253;27;88826;-74
2022/06/09 08:21:21;;;;;;;0.10;0.10;;;;;;;;;;5062589;27;88997;-74
2022/06/09 08:24:05;;;;;;;0.10;0.10;;;;;;;;;;5062673;27;87867;-72
2022/06/09 08:26:32;;;;;;;0.10;0.10;;;;;;;;;;5047769;27;88419;-74
2022/06/09 08:29:01;;;;;;;0.10;0.10;;;;;;;;;;5062569;27;87804;-74
2022/06/09 08:31:27;;;;;;;0.10;0.10;;;;;;;;;;5062051;27;88377;-74
2022/06/09 08:33:54;;;;;;;0.20;0.20;;;;;;;;;;5062436;27;88703;-72
2022/06/09 08:36:20;;;;;;;0.10;0.10;;;;;;;;;;5062624;27;88063;-74
2022/06/09 08:38:48;;;;;;;0.00;0.00;;;;;;;;;;5044287;27;88966;-73
2022/06/09 08:41:17;;;;;;;0.10;0.10;;;;;;;;;;5061589;27;88982;-73
2022/06/09 08:44:04;;;;;;;0.10;0.10;;;;;;;;;;5062339;27;88056;-73
2022/06/09 08:46:40;;;;;;;0.00;0.00;;;;;;;;;;5062677;27;88316;-73
2022/06/09 08:49:27;;;;;;;0.10;0.10;;;;;;;;;;5064925;27;89300;-70
2022/06/09 08:51:58;;;;;;;0.00;0.00;;;;;;;;;;5045326;27;89014;-73
2022/06/09 08:54:27;;;;;;;0.10;0.10;;;;;;;;;;5061748;27;88602;-76
2022/06/09 08:56:54;;;;;;;0.00;0.00;;;;;;;;;;5044350;27;91212;-76
2022/06/09 08:59:28;;;;;;;0.10;0.10;;;;;;;;;;5061786;27;87970;-75
2022/06/09 09:01:57;;;;;;;0.00;0.00;;;;;;;;;;5061770;27;89511;-76
2022/06/09 09:04:26;;;;;;;0.10;0.10;;;;;;;;;;5061641;27;88481;-75
2022/06/09 09:07:01;;;;;;;0.10;0.10;;;;;;;;;;5061450;27;89876;-76
2022/06/09 09:09:30;;;;;;;0.10;0.10;;;;;;;;;;5062179;27;88652;-77
2022/06/09 09:11:59;;;;;;;0.00;0.00;;;;;;;;;;5064950;27;88385;-75
2022/06/09 09:14:43;;;;;;;0.00;0.00;;;;;;;;;;5061961;27;89187;-76
2022/06/09 09:17:19;;;;;;;0.10;0.10;;;;;;;;;;5061703;27;88200;-75
2022/06/09 09:19:51;;;;;;;0.10;0.10;;;;;;;;;;5061973;27;88879;-77
2022/06/09 09:22:17;;;;;;;0.10;0.10;;;;;;;;;;5062259;27;88476;-75
2022/06/09 09:25:05;;;;;;;0.10;0.10;;;;;;;;;;5061704;27;88270;-75
2022/06/09 09:27:43;;;;;;;0.10;0.10;;;;;;;;;;5061819;27;88026;-76
2022/06/09 09:30:13;;;;;;;0.10;0.10;;;;;;;;;;5037496;27;91665;-77
2022/06/09 09:32:42;;;;;;;0.10;0.10;;;;;;;;;;5040827;27;88561;-76
2022/06/09 09:35:14;;;;;;;0.10;0.10;;;;;;;;;;5044079;27;88334;-76
2022/06/09 09:37:45;;;;;;;0.20;0.20;;;;;;;;;;5040151;27;87819;-71
2022/06/09 09:40:11;;;;;;;0.10;0.10;;;;;;;;;;5025112;27;88995;-72
2022/06/09 09:42:42;;;;;;;0.10;0.10;;;;;;;;;;5039591;27;88292;-70
2022/06/09 09:45:11;;;;;;;0.10;0.10;;;;;;;;;;5040504;27;87871;-70
2022/06/09 09:48:00;;;;;;;0.35;0.35;;;;;;;;;;5040969;27;88892;-70
2022/06/09 09:50:33;;;;;;;0.10;0.10;;;;;;;;;;5036650;27;88459;-73
2022/06/09 09:53:05;;;;;;;0.10;0.10;;;;;;;;;;5040340;27;88385;-73
2022/06/09 09:55:40;;;;;;;0.10;0.10;;;;;;;;;;5043117;27;88582;-71
2022/06/09 09:58:27;;;;;;;0.10;0.10;;;;;;;;;;5026588;27;91166;-72
2022/06/09 10:01:03;;;;;;;0.10;0.10;;;;;;;;;;5042915;27;88418;-72
2022/06/09 10:09:51;;;;;;;0.10;0.10;;;;;;;;;;5042362;27;89003;-75
2022/06/09 10:12:28;;;;;;;0.10;0.10;;;;;;;;;;5043073;27;89054;-75
2022/06/09 10:15:15;;;;;;;0.10;0.10;;;;;;;;;;5040830;27;87609;-76
2022/06/09 10:18:01;;;;;;;0.10;0.10;;;;;;;;;;5039884;27;88194;-76
2022/06/09 10:21:02;;;;;;;0.10;0.10;;;;;;;;;;5046045;27;89531;-75
2022/06/09 10:23:37;;;;;;;0.13;0.13;;;;;;;;;;5039754;27;88961;-73
2022/06/09 10:26:15;;;;;;;0.10;0.10;;;;;;;;;;5021416;27;91826;-75
2022/06/09 10:29:03;;;;;;;0.10;0.10;;;;;;;;;;5039907;27;87960;-75
2022/06/09 10:31:48;;;;;;;0.10;0.10;;;;;;;;;;5025580;27;88702;-76
2022/06/09 10:34:30;;;;;;;0.10;0.10;;;;;;;;;;5039763;27;88510;-77
2022/06/09 10:36:56;;;;;;;;;;;;;;;;;;5040277;27;88712;-74
2022/06/09 10:39:23;;;;;;;0.10;0.10;;;;;;;;;;5038792;27;117951;-74
2022/06/09 10:41:53;;;;;;;0.10;0.10;;;;;;;;;;5043576;27;88331;-74
2022/06/09 10:44:26;;;;;;;2.30;0.57;;;;;;;;;;5042579;27;88482;-74
2022/06/09 10:55:37;;;;;;;0.10;0.10;;;;;;;;;;5039278;27;89007;-74
2022/06/09 10:58:07;;;;;;;0.10;0.10;;;;;;;;;;5038851;27;91715;-74
2022/06/09 11:00:40;;;;;;;0.10;0.10;;;;;;;;;;5026350;27;88069;-74
2022/06/09 11:03:22;;;;;;;0.10;0.10;;;;;;;;;;5039537;27;88333;-71
2022/06/09 11:05:54;;;;;;;0.13;0.13;;;;;;;;;;5025653;28;89491;-75
2022/06/09 11:08:21;;;;;;;0.10;0.10;;;;;;;;;;5043009;27;88098;-74
2022/06/09 11:11:06;;;;;;;0.10;0.10;;;;;;;;;;5042768;27;88746;-78
2022/06/09 11:13:51;;;;;;;0.40;0.40;;;;;;;;;;5039513;27;88890;-77
2022/06/09 11:16:37;;;;;;;0.10;0.10;;;;;;;;;;5038472;27;89338;-77
2022/06/09 11:19:03;;;;;;;0.10;0.10;;;;;;;;;;5039298;28;88353;-78
2022/06/09 11:21:37;;;;;;;0.10;0.10;;;;;;;;;;5021177;27;89119;-77
2022/06/09 11:24:25;;;;;;;0.10;0.10;;;;;;;;;;5039034;27;89598;-77
2022/06/09 11:27:10;;;;;;;0.10;0.10;;;;;;;;;;5038917;27;89343;-77
2022/06/09 11:29:46;;;;;;;0.10;0.10;;;;;;;;;;5039278;27;89240;-77
2022/06/09 11:32:25;;;;;;;0.10;0.10;;;;;;;;;;5042224;27;89209;-77
2022/06/09 11:34:58;;;;;;;0.10;0.10;;;;;;;;;;5021260;27;90596;-77
2022/06/09 11:37:34;;;;;;;0.10;0.10;;;;;;;;;;5040103;27;89645;-78
2022/06/09 11:40:09;;;;;;;0.10;0.10;;;;;;;;;;5041459;27;89226;-81
2022/06/09 11:42:45;;;;;;;0.20;0.20;;;;;;;;;;5037992;27;90311;-78
2022/06/09 11:45:23;;;;;;;0.10;0.10;;;;;;;;;;5038686;27;89739;-79
2022/06/09 11:47:53;;;;;;;0.10;0.10;;;;;;;;;;5038986;27;87942;-77
2022/06/09 11:50:22;;;;;;;0.10;0.10;;;;;;;;;;5043758;27;90346;-77
2022/06/09 11:52:48;;;;;;;0.10;0.10;;;;;;;;;;5038870;27;88907;-77
2022/06/09 11:58:33;;;;;;;0.10;0.10;;;;;;;;;;5038189;27;89169;-76
2022/06/09 12:01:08;;;;;;;0.10;0.10;;;;;;;;;;5022361;27;91213;-76
2022/06/09 12:03:47;;;;;;;0.10;0.10;;;;;;;;;;5038575;27;88680;-78
2022/06/09 12:06:25;;;;;;;0.10;0.10;;;;;;;;;;5040563;27;88512;-75
2022/06/09 12:09:11;;;;;;;0.17;0.17;;;;;;;;;;5041971;27;89113;-76
2022/06/09 12:11:50;;;;;;;0.15;0.15;;;;;;;;;;5044008;27;89785;-75
2022/06/09 12:14:18;;;;;;;0.10;0.10;;;;;;;;;;5041979;27;89035;-75
2022/06/09 12:17:05;;;;;;;0.10;0.10;;;;;;;;;;5045002;27;88457;-76
2022/06/09 12:19:49;;;;;;;0.10;0.10;;;;;;;;;;5042138;27;89454;-76
2022/06/09 12:22:35;;;;;;;2.38;0.40;;;;;;;;;;5042113;27;88006;-77
2022/06/09 12:25:08;;;;;;;0.47;0.38;;;;;;;;;;5023993;27;90342;-77
2022/06/09 12:27:34;;;;;;;0.00;0.00;;;;;;;;;;5042235;27;88164;-76
2022/06/09 12:30:01;;;;;;;0.10;0.10;;;;;;;;;;5025774;27;88841;-75
2022/06/09 12:32:30;;;;;;;0.32;0.32;;;;;;;;;;5042814;27;89009;-74
2022/06/09 12:34:57;;;;;;;0.25;0.25;;;;;;;;;;5041253;27;90509;-77
2022/06/09 12:37:29;;;;;;;0.10;0.10;;;;;;;;;;5041493;27;88012;-76
2022/06/09 12:40:04;;;;;;;0.28;0.28;;;;;;;;;;5045786;27;88916;-78
2022/06/09 12:42:45;;;;;;;0.10;0.10;;;;;;;;;;5042041;27;87970;-76
2022/06/09 12:45:24;;;;;;;0.10;0.10;;;;;;;;;;5041645;27;88539;-74
2022/06/09 12:47:55;;;;;;;0.17;0.17;;;;;;;;;;5041171;27;89452;-76
2022/06/09 12:50:27;;;;;;;0.10;0.10;;;;;;;;;;5045075;27;88537;-75
2022/06/09 12:52:57;;;;;;;0.13;0.13;;;;;;;;;;5024803;27;88485;-74
2022/06/09 12:55:29;;;;;;;0.10;0.10;;;;;;;;;;5041331;27;88608;-76
2022/06/09 12:58:15;;;;;;;0.10;0.10;;;;;;;;;;5041066;27;87987;-75
2022/06/09 13:00:45;;;;;;;0.10;0.10;;;;;;;;;;5040550;27;89059;-75
2022/06/09 13:03:20;;;;;;;0.00;0.00;;;;;;;;;;5044256;27;88984;-75
2022/06/09 13:05:48;;;;;;;0.10;0.10;;;;;;;;;;5041371;27;89516;-75
2022/06/09 13:08:20;;;;;;;0.10;0.10;;;;;;;;;;5041097;27;90123;-73
2022/06/09 13:10:53;;;;;;;0.10;0.10;;;;;;;;;;5041333;27;88217;-74
2022/06/09 13:13:22;;;;;;;0.10;0.10;;;;;;;;;;5041314;27;88569;-73
2022/06/09 13:16:07;;;;;;;0.10;0.10;;;;;;;;;;5041180;27;89582;-74
2022/06/09 13:18:36;;;;;;;0.10;0.10;;;;;;;;;;5041552;27;88189;-72
2022/06/09 13:21:14;;;;;;;0.10;0.10;;;;;;;;;;5041872;27;88109;-73
2022/06/09 13:23:41;;;;;;;0.10;0.10;;;;;;;;;;5036590;27;88649;-72
2022/06/09 13:26:12;;;;;;;0.10;0.10;;;;;;;;;;5043373;27;88516;-73
2022/06/09 13:28:38;;;;;;;0.10;0.10;;;;;;;;;;5040796;27;89001;-73
2022/06/09 13:31:06;;;;;;;0.10;0.10;;;;;;;;;;5041981;27;88096;-73
2022/06/09 13:33:51;;;;;;;0.08;0.08;;;;;;;;;;5040837;27;88143;-72
2022/06/09 13:36:33;;;;;;;0.10;0.10;;;;;;;;;;5040801;27;88894;-72
2022/06/09 13:39:19;;;;;;;0.10;0.10;;;;;;;;;;5022738;28;91582;-73
2022/06/09 13:41:46;;;;;;;0.10;0.10;;;;;;;;;;5042094;27;89173;-73
2022/06/09 13:44:14;;;;;;;0.03;0.03;;;;;;;;;;5040619;27;88435;-74
2022/06/09 13:46:59;;;;;;;0.10;0.10;;;;;;;;;;5040546;27;87959;-74
2022/06/09 13:49:38;;;;;;;0.10;0.10;;;;;;;;;;5043514;27;89366;-73
2022/06/09 13:52:06;;;;;;;0.10;0.10;;;;;;;;;;5039567;27;89299;-73
2022/06/09 13:54:40;;;;;;;0.40;0.40;;;;;;;;;;5040564;27;89110;-73
2022/06/09 13:57:20;;;;;;;0.10;0.10;;;;;;;;;;5022609;28;89289;-72
2022/06/09 13:59:47;;;;;;;0.10;0.10;;;;;;;;;;5021855;27;91260;-73
2022/06/09 14:02:15;;;;;;;0.17;0.10;;;;;;;;;;5040429;27;89410;-75
2022/06/09 14:04:42;;;;;;;0.10;0.10;;;;;;;;;;5040211;27;89132;-71
2022/06/09 14:07:14;;;;;;;0.10;0.10;;;;;;;;;;5022241;28;88502;-75
2022/06/09 14:09:40;;;;;;;0.10;0.10;;;;;;;;;;5043720;27;89150;-74
2022/06/09 14:12:08;;;;;;;0.10;0.10;;;;;;;;;;5042983;27;88174;-74
2022/06/09 14:14:39;;;;;;;0.30;0.30;;;;;;;;;;5040317;27;89264;-75
2022/06/09 14:17:06;;;;;;;0.03;0.03;;;;;;;;;;5039683;28;89644;-75
2022/06/09 14:19:32;;;;;;;0.10;0.10;;;;;;;;;;5040135;27;87986;-75
2022/06/09 14:21:58;;;;;;;0.10;0.10;;;;;;;;;;5042859;27;88880;-74
2022/06/09 14:24:25;;;;;;;0.10;0.10;;;;;;;;;;5040179;27;89247;-75
2022/06/09 14:26:52;;;;;;;0.10;0.10;;;;;;;;;;5039589;27;88615;-74
2022/06/09 14:29:26;;;;;;;0.00;0.00;;;;;;;;;;5039419;27;88225;-76
2022/06/09 14:31:52;;;;;;;0.10;0.10;;;;;;;;;;5046601;27;89223;-77
2022/06/09 14:34:19;;;;;;;0.10;0.10;;;;;;;;;;5040081;27;88881;-76
2022/06/09 14:36:45;;;;;;;0.10;0.10;;;;;;;;;;5040045;27;89153;-75
2022/06/09 14:39:19;;;;;;;0.10;0.10;;;;;;;;;;5039555;27;88345;-76
2022/06/09 14:41:45;;;;;;;0.00;0.00;;;;;;;;;;5039012;27;88750;-78
2022/06/09 14:44:12;;;;;;;0.00;0.00;;;;;;;;;;5039600;27;89192;-76
2022/06/09 14:46:40;;;;;;;0.10;0.10;;;;;;;;;;5039702;27;87902;-76
2022/06/09 14:49:11;;;;;;;0.00;0.00;;;;;;;;;;5039763;27;88371;-75
2022/06/09 14:51:37;;;;;;;0.10;0.10;;;;;;;;;;5040076;27;89242;-78
2022/06/09 14:54:04;;;;;;;0.00;0.00;;;;;;;;;;5042358;27;88232;-76
2022/06/09 14:56:33;;;;;;;0.10;0.10;;;;;;;;;;5039292;27;88398;-73
2022/06/09 14:59:00;;;;;;;0.00;0.00;;;;;;;;;;5039824;27;88078;-75
2022/06/09 15:01:33;;;;;;;0.00;0.00;;;;;;;;;;5040381;27;88007;-78
2022/06/09 15:04:01;;;;;;;0.85;0.40;;;;;;;;;;5039129;27;89145;-75
2022/06/09 15:06:28;;;;;;;0.10;0.10;;;;;;;;;;5039105;27;88731;-76
2022/06/09 15:08:57;;;;;;;0.00;0.00;;;;;;;;;;5039303;27;88831;-77
2022/06/09 15:11:31;;;;;;;6.32;0.30;;;;;;;;;;5040709;27;88687;-77
2022/06/09 15:13:58;;;;;;;0.10;0.10;;;;;;;;;;5039706;27;87802;-79
2022/06/09 15:16:54;;;;;;;0.13;0.13;;;;;;;;;;5042404;27;88505;-75
2022/06/09 15:19:22;;;;;;;0.10;0.10;;;;;;;;;;5039462;27;88655;-77
2022/06/09 15:21:48;;;;;;;0.10;0.10;;;;;;;;;;5041154;27;89321;-76
2022/06/09 15:24:15;;;;;;;0.22;0.22;;;;;;;;;;5039108;27;87787;-76
2022/06/09 15:26:42;;;;;;;0.13;0.13;;;;;;;;;;5039132;27;88160;-74
2022/06/09 15:29:08;;;;;;;0.10;0.10;;;;;;;;;;5021450;27;88915;-78
2022/06/09 15:31:35;;;;;;;0.10;0.10;;;;;;;;;;5023297;28;89506;-78